sensor_id;sensor_type;location;lat;lon;timestamp;temperature;humidity
59313;DHT22;45084;51.486;7.366;2023-11-21T00:05:36;5.80;99.90
59313;DHT22;45084;51.486;7.366;2023-11-21T00:08:05;5.70;99.90
59313;DHT22;45084;51.486;7.366;2023-11-21T00:10:33;5.70;99.90
59313;DHT22;45084;51.486;7.366;2023-11-21T00:13:02;5.70;99.90
59313;DHT22;45084;51.486;7.366;2023-11-21T00:15:30;5.70;99.90
59313;DHT22;45084;51.486;7.366;2023-11-21T00:18:06;5.80;99.90
59313;DHT22;45084;51.486;7.366;2023-11-21T00:20:34;5.90;99.90
59313;DHT22;45084;51.486;7.366;2023-11-21T00:23:03;5.90;99.90
59313;DHT22;45084;51.486;7.366;2023-11-21T00:25:29;5.90;99.90
59313;DHT22;45084;51.486;7.366;2023-11-21T00:27:59;6.00;99.90
59313;DHT22;45084;51.486;7.366;2023-11-21T00:30:27;6.00;99.90
59313;DHT22;45084;51.486;7.366;2023-11-21T00:33:19;6.10;99.90
59313;DHT22;45084;51.486;7.366;2023-11-21T00:36:15;6.20;99.90
59313;DHT22;45084;51.486;7.366;2023-11-21T00:39:06;6.20;99.90
59313;DHT22;45084;51.486;7.366;2023-11-21T00:41:35;6.30;99.90
59313;DHT22;45084;51.486;7.366;2023-11-21T00:44:13;6.30;99.90
59313;DHT22;45084;51.486;7.366;2023-11-21T00:57:03;6.50;99.90
59313;DHT22;45084;51.486;7.366;2023-11-21T00:59:51;6.50;99.90
59313;DHT22;45084;51.486;7.366;2023-11-21T01:02:49;6.50;99.90
59313;DHT22;45084;51.486;7.366;2023-11-21T01:05:18;6.50;99.90
59313;DHT22;45084;51.486;7.366;2023-11-21T01:07:46;6.50;99.90
59313;DHT22;45084;51.486;7.366;2023-11-21T01:10:14;6.50;99.90
59313;DHT22;45084;51.486;7.366;2023-11-21T01:12:43;6.50;99.90
59313;DHT22;45084;51.486;7.366;2023-11-21T01:15:11;6.50;99.90
59313;DHT22;45084;51.486;7.366;2023-11-21T01:17:39;6.50;99.90
59313;DHT22;45084;51.486;7.366;2023-11-21T01:20:10;6.60;99.90
59313;DHT22;45084;51.486;7.366;2023-11-21T01:22:38;6.50;99.90
59313;DHT22;45084;51.486;7.366;2023-11-21T01:25:09;6.60;99.90
59313;DHT22;45084;51.486;7.366;2023-11-21T01:27:36;6.60;99.90
59313;DHT22;45084;51.486;7.366;2023-11-21T01:30:27;6.70;99.90
59313;DHT22;45084;51.486;7.366;2023-11-21T01:32:53;6.60;99.90
59313;DHT22;45084;51.486;7.366;2023-11-21T01:35:30;6.60;99.90
59313;DHT22;45084;51.486;7.366;2023-11-21T01:44:58;6.70;99.90
59313;DHT22;45084;51.486;7.366;2023-11-21T01:47:24;6.70;99.90
59313;DHT22;45084;51.486;7.366;2023-11-21T01:49:51;6.70;99.90
59313;DHT22;45084;51.486;7.366;2023-11-21T01:52:17;6.60;99.90
59313;DHT22;45084;51.486;7.366;2023-11-21T01:54:43;6.60;99.90
59313;DHT22;45084;51.486;7.366;2023-11-21T01:57:09;6.60;99.90
59313;DHT22;45084;51.486;7.366;2023-11-21T01:59:36;6.50;99.90
59313;DHT22;45084;51.486;7.366;2023-11-21T02:02:06;6.50;99.90
59313;DHT22;45084;51.486;7.366;2023-11-21T02:04:35;6.40;99.90
59313;DHT22;45084;51.486;7.366;2023-11-21T02:07:04;6.30;99.90
59313;DHT22;45084;51.486;7.366;2023-11-21T02:09:31;6.30;99.90
59313;DHT22;45084;51.486;7.366;2023-11-21T02:12:03;6.30;99.90
59313;DHT22;45084;51.486;7.366;2023-11-21T02:14:29;6.20;99.90
59313;DHT22;45084;51.486;7.366;2023-11-21T02:16:56;6.30;99.90
59313;DHT22;45084;51.486;7.366;2023-11-21T02:19:23;6.30;99.90
59313;DHT22;45084;51.486;7.366;2023-11-21T02:21:53;6.30;99.90
59313;DHT22;45084;51.486;7.366;2023-11-21T02:24:23;6.30;99.90
59313;DHT22;45084;51.486;7.366;2023-11-21T02:26:49;6.30;99.90
59313;DHT22;45084;51.486;7.366;2023-11-21T02:29:18;6.30;99.90
59313;DHT22;45084;51.486;7.366;2023-11-21T02:31:47;6.40;99.90
59313;DHT22;45084;51.486;7.366;2023-11-21T02:34:14;6.40;99.90
59313;DHT22;45084;51.486;7.366;2023-11-21T02:36:40;6.40;99.90
59313;DHT22;45084;51.486;7.366;2023-11-21T02:39:08;6.30;99.90
59313;DHT22;45084;51.486;7.366;2023-11-21T02:41:34;6.30;99.90
59313;DHT22;45084;51.486;7.366;2023-11-21T02:44:00;6.30;99.90
59313;DHT22;45084;51.486;7.366;2023-11-21T02:46:26;6.30;99.90
59313;DHT22;45084;51.486;7.366;2023-11-21T02:48:52;6.40;99.90
59313;DHT22;45084;51.486;7.366;2023-11-21T02:51:20;6.40;99.90
59313;DHT22;45084;51.486;7.366;2023-11-21T02:53:45;6.40;99.90
59313;DHT22;45084;51.486;7.366;2023-11-21T02:56:12;6.40;99.90
59313;DHT22;45084;51.486;7.366;2023-11-21T02:58:41;6.40;99.90
59313;DHT22;45084;51.486;7.366;2023-11-21T03:01:07;6.40;99.90
59313;DHT22;45084;51.486;7.366;2023-11-21T03:03:33;6.40;99.90
59313;DHT22;45084;51.486;7.366;2023-11-21T03:05:59;6.50;99.90
59313;DHT22;45084;51.486;7.366;2023-11-21T03:08:24;6.50;99.90
59313;DHT22;45084;51.486;7.366;2023-11-21T03:10:50;6.60;99.90
59313;DHT22;45084;51.486;7.366;2023-11-21T03:13:16;6.70;99.90
59313;DHT22;45084;51.486;7.366;2023-11-21T03:15:42;6.70;99.90
59313;DHT22;45084;51.486;7.366;2023-11-21T03:18:08;6.70;99.90
59313;DHT22;45084;51.486;7.366;2023-11-21T03:20:34;6.70;99.90
59313;DHT22;45084;51.486;7.366;2023-11-21T03:23:00;6.70;99.90
59313;DHT22;45084;51.486;7.366;2023-11-21T03:25:26;6.70;99.90
59313;DHT22;45084;51.486;7.366;2023-11-21T03:27:51;6.70;99.90
59313;DHT22;45084;51.486;7.366;2023-11-21T03:30:17;6.60;99.90
59313;DHT22;45084;51.486;7.366;2023-11-21T03:32:43;6.60;99.90
59313;DHT22;45084;51.486;7.366;2023-11-21T03:35:08;6.60;99.90
59313;DHT22;45084;51.486;7.366;2023-11-21T03:37:34;6.60;99.90
59313;DHT22;45084;51.486;7.366;2023-11-21T03:40:00;6.70;99.90
59313;DHT22;45084;51.486;7.366;2023-11-21T03:42:26;6.70;99.90
59313;DHT22;45084;51.486;7.366;2023-11-21T03:44:52;6.60;99.90
59313;DHT22;45084;51.486;7.366;2023-11-21T03:53:44;6.50;99.90
59313;DHT22;45084;51.486;7.366;2023-11-21T04:05:23;6.30;99.90
59313;DHT22;45084;51.486;7.366;2023-11-21T04:08:39;6.30;99.90
59313;DHT22;45084;51.486;7.366;2023-11-21T04:17:54;6.30;99.90
59313;DHT22;45084;51.486;7.366;2023-11-21T04:20:19;6.30;99.90
59313;DHT22;45084;51.486;7.366;2023-11-21T04:22:45;6.40;99.90
59313;DHT22;45084;51.486;7.366;2023-11-21T04:25:11;6.40;99.90
59313;DHT22;45084;51.486;7.366;2023-11-21T04:27:39;6.40;99.90
59313;DHT22;45084;51.486;7.366;2023-11-21T04:30:05;6.40;99.90
59313;DHT22;45084;51.486;7.366;2023-11-21T04:32:31;6.40;99.90
59313;DHT22;45084;51.486;7.366;2023-11-21T04:34:57;6.40;99.90
59313;DHT22;45084;51.486;7.366;2023-11-21T04:37:23;6.40;99.90
59313;DHT22;45084;51.486;7.366;2023-11-21T04:39:49;6.40;99.90
59313;DHT22;45084;51.486;7.366;2023-11-21T04:42:15;6.40;99.90
59313;DHT22;45084;51.486;7.366;2023-11-21T04:44:40;6.40;99.90
59313;DHT22;45084;51.486;7.366;2023-11-21T04:47:06;6.40;99.90
59313;DHT22;45084;51.486;7.366;2023-11-21T04:49:33;6.40;99.90
59313;DHT22;45084;51.486;7.366;2023-11-21T04:51:58;6.40;99.90
59313;DHT22;45084;51.486;7.366;2023-11-21T04:54:24;6.30;99.90
59313;DHT22;45084;51.486;7.366;2023-11-21T04:56:50;6.30;99.90
59313;DHT22;45084;51.486;7.366;2023-11-21T04:59:15;6.20;99.90
59313;DHT22;45084;51.486;7.366;2023-11-21T05:01:41;6.10;99.90
59313;DHT22;45084;51.486;7.366;2023-11-21T05:04:06;6.00;99.90
59313;DHT22;45084;51.486;7.366;2023-11-21T05:06:34;5.90;99.90
59313;DHT22;45084;51.486;7.366;2023-11-21T05:09:00;5.80;99.90
59313;DHT22;45084;51.486;7.366;2023-11-21T05:11:26;5.70;99.90
59313;DHT22;45084;51.486;7.366;2023-11-21T05:13:52;5.60;99.90
59313;DHT22;45084;51.486;7.366;2023-11-21T05:16:19;5.50;99.90
59313;DHT22;45084;51.486;7.366;2023-11-21T05:18:45;5.50;99.90
59313;DHT22;45084;51.486;7.366;2023-11-21T05:21:11;5.40;99.90
59313;DHT22;45084;51.486;7.366;2023-11-21T05:23:37;5.30;99.90
59313;DHT22;45084;51.486;7.366;2023-11-21T05:26:03;5.30;99.90
59313;DHT22;45084;51.486;7.366;2023-11-21T05:28:29;5.30;99.90
59313;DHT22;45084;51.486;7.366;2023-11-21T05:30:54;5.30;99.90
59313;DHT22;45084;51.486;7.366;2023-11-21T05:33:21;5.30;99.90
59313;DHT22;45084;51.486;7.366;2023-11-21T05:39:18;5.40;99.90
59313;DHT22;45084;51.486;7.366;2023-11-21T05:41:44;5.40;99.90
59313;DHT22;45084;51.486;7.366;2023-11-21T05:44:11;5.40;99.90
59313;DHT22;45084;51.486;7.366;2023-11-21T05:46:37;5.50;99.90
59313;DHT22;45084;51.486;7.366;2023-11-21T05:49:03;5.50;99.90
59313;DHT22;45084;51.486;7.366;2023-11-21T05:51:29;5.50;99.90
59313;DHT22;45084;51.486;7.366;2023-11-21T05:53:57;5.50;99.90
59313;DHT22;45084;51.486;7.366;2023-11-21T05:56:23;5.50;99.90
59313;DHT22;45084;51.486;7.366;2023-11-21T05:58:48;5.40;99.90
59313;DHT22;45084;51.486;7.366;2023-11-21T06:01:14;5.40;99.90
59313;DHT22;45084;51.486;7.366;2023-11-21T06:03:40;5.30;99.90
59313;DHT22;45084;51.486;7.366;2023-11-21T06:06:05;5.20;99.90
59313;DHT22;45084;51.486;7.366;2023-11-21T06:08:32;5.20;99.90
59313;DHT22;45084;51.486;7.366;2023-11-21T06:10:58;5.30;99.90
59313;DHT22;45084;51.486;7.366;2023-11-21T06:13:23;5.40;99.90
59313;DHT22;45084;51.486;7.366;2023-11-21T06:15:50;5.40;99.90
59313;DHT22;45084;51.486;7.366;2023-11-21T06:18:16;5.40;99.90
59313;DHT22;45084;51.486;7.366;2023-11-21T06:20:45;5.40;99.90
59313;DHT22;45084;51.486;7.366;2023-11-21T06:23:10;5.40;99.90
59313;DHT22;45084;51.486;7.366;2023-11-21T06:25:36;5.40;99.90
59313;DHT22;45084;51.486;7.366;2023-11-21T06:28:02;5.40;99.90
59313;DHT22;45084;51.486;7.366;2023-11-21T06:30:27;5.30;99.90
59313;DHT22;45084;51.486;7.366;2023-11-21T06:32:54;5.20;99.90
59313;DHT22;45084;51.486;7.366;2023-11-21T06:35:20;5.00;99.90
59313;DHT22;45084;51.486;7.366;2023-11-21T06:37:46;5.00;99.90
59313;DHT22;45084;51.486;7.366;2023-11-21T06:40:15;5.00;99.90
59313;DHT22;45084;51.486;7.366;2023-11-21T06:42:41;5.00;99.90
59313;DHT22;45084;51.486;7.366;2023-11-21T06:45:07;4.90;99.90
59313;DHT22;45084;51.486;7.366;2023-11-21T06:47:33;5.00;99.90
59313;DHT22;45084;51.486;7.366;2023-11-21T06:49:59;5.00;99.90
59313;DHT22;45084;51.486;7.366;2023-11-21T06:52:26;5.10;99.90
59313;DHT22;45084;51.486;7.366;2023-11-21T06:54:51;5.10;99.90
59313;DHT22;45084;51.486;7.366;2023-11-21T06:57:17;5.10;99.90
59313;DHT22;45084;51.486;7.366;2023-11-21T06:59:43;5.00;99.90
59313;DHT22;45084;51.486;7.366;2023-11-21T07:02:09;5.10;99.90
59313;DHT22;45084;51.486;7.366;2023-11-21T07:04:38;5.00;99.90
59313;DHT22;45084;51.486;7.366;2023-11-21T07:07:04;5.10;99.90
59313;DHT22;45084;51.486;7.366;2023-11-21T07:09:29;5.10;99.90
59313;DHT22;45084;51.486;7.366;2023-11-21T07:11:55;5.10;99.90
59313;DHT22;45084;51.486;7.366;2023-11-21T07:14:22;5.20;99.90
59313;DHT22;45084;51.486;7.366;2023-11-21T07:16:47;5.20;99.90
59313;DHT22;45084;51.486;7.366;2023-11-21T07:19:13;5.30;99.90
59313;DHT22;45084;51.486;7.366;2023-11-21T07:21:39;5.30;99.90
59313;DHT22;45084;51.486;7.366;2023-11-21T07:24:06;5.50;99.90
59313;DHT22;45084;51.486;7.366;2023-11-21T07:26:33;5.50;99.90
59313;DHT22;45084;51.486;7.366;2023-11-21T07:28:59;5.70;99.90
59313;DHT22;45084;51.486;7.366;2023-11-21T07:31:25;5.80;99.90
59313;DHT22;45084;51.486;7.366;2023-11-21T07:33:51;5.80;99.90
59313;DHT22;45084;51.486;7.366;2023-11-21T07:36:17;5.90;99.90
59313;DHT22;45084;51.486;7.366;2023-11-21T07:38:44;6.00;99.90
59313;DHT22;45084;51.486;7.366;2023-11-21T07:41:10;6.20;99.90
59313;DHT22;45084;51.486;7.366;2023-11-21T07:43:37;6.20;99.90
59313;DHT22;45084;51.486;7.366;2023-11-21T07:46:03;6.30;99.90
59313;DHT22;45084;51.486;7.366;2023-11-21T07:48:31;6.40;99.90
59313;DHT22;45084;51.486;7.366;2023-11-21T07:50:58;6.50;99.90
59313;DHT22;45084;51.486;7.366;2023-11-21T07:53:27;6.60;99.90
59313;DHT22;45084;51.486;7.366;2023-11-21T07:55:54;6.60;99.90
59313;DHT22;45084;51.486;7.366;2023-11-21T07:58:22;6.70;99.90
59313;DHT22;45084;51.486;7.366;2023-11-21T08:00:50;6.80;99.90
59313;DHT22;45084;51.486;7.366;2023-11-21T08:03:17;6.90;99.90
59313;DHT22;45084;51.486;7.366;2023-11-21T08:05:43;7.00;99.90
59313;DHT22;45084;51.486;7.366;2023-11-21T08:08:09;7.10;99.90
59313;DHT22;45084;51.486;7.366;2023-11-21T08:10:35;7.20;99.90
59313;DHT22;45084;51.486;7.366;2023-11-21T08:13:04;7.20;99.90
59313;DHT22;45084;51.486;7.366;2023-11-21T08:15:30;7.30;99.90
59313;DHT22;45084;51.486;7.366;2023-11-21T08:17:57;7.30;99.90
59313;DHT22;45084;51.486;7.366;2023-11-21T08:20:24;7.40;99.90
59313;DHT22;45084;51.486;7.366;2023-11-21T08:22:50;7.50;99.90
59313;DHT22;45084;51.486;7.366;2023-11-21T08:25:17;7.50;99.90
59313;DHT22;45084;51.486;7.366;2023-11-21T08:28:00;7.60;99.90
59313;DHT22;45084;51.486;7.366;2023-11-21T08:30:29;7.60;99.90
59313;DHT22;45084;51.486;7.366;2023-11-21T08:32:58;7.70;99.90
59313;DHT22;45084;51.486;7.366;2023-11-21T08:35:24;7.70;99.90
59313;DHT22;45084;51.486;7.366;2023-11-21T08:37:55;7.70;99.90
59313;DHT22;45084;51.486;7.366;2023-11-21T08:40:21;7.80;99.90
59313;DHT22;45084;51.486;7.366;2023-11-21T08:43:02;7.80;99.90
59313;DHT22;45084;51.486;7.366;2023-11-21T08:45:39;7.90;99.90
59313;DHT22;45084;51.486;7.366;2023-11-21T08:48:04;7.90;99.90
59313;DHT22;45084;51.486;7.366;2023-11-21T08:50:33;7.80;99.90
59313;DHT22;45084;51.486;7.366;2023-11-21T08:52:59;7.90;99.90
59313;DHT22;45084;51.486;7.366;2023-11-21T08:55:28;7.90;99.90
59313;DHT22;45084;51.486;7.366;2023-11-21T08:57:54;7.90;99.90
59313;DHT22;45084;51.486;7.366;2023-11-21T09:00:20;7.90;99.90
59313;DHT22;45084;51.486;7.366;2023-11-21T09:06:14;7.90;99.90
59313;DHT22;45084;51.486;7.366;2023-11-21T09:08:43;8.00;99.90
59313;DHT22;45084;51.486;7.366;2023-11-21T09:11:13;8.00;99.90
59313;DHT22;45084;51.486;7.366;2023-11-21T09:13:58;8.10;99.90
59313;DHT22;45084;51.486;7.366;2023-11-21T09:20:29;8.30;99.90
59313;DHT22;45084;51.486;7.366;2023-11-21T09:23:01;8.40;99.90
59313;DHT22;45084;51.486;7.366;2023-11-21T09:25:31;8.40;99.90
59313;DHT22;45084;51.486;7.366;2023-11-21T09:34:50;8.60;99.90
59313;DHT22;45084;51.486;7.366;2023-11-21T09:37:28;8.60;99.90
59313;DHT22;45084;51.486;7.366;2023-11-21T09:39:54;8.70;99.90
59313;DHT22;45084;51.486;7.366;2023-11-21T09:42:40;8.80;99.90
59313;DHT22;45084;51.486;7.366;2023-11-21T09:45:21;8.90;99.90
59313;DHT22;45084;51.486;7.366;2023-11-21T09:48:13;8.80;99.90
59313;DHT22;45084;51.486;7.366;2023-11-21T09:50:41;9.00;99.90
59313;DHT22;45084;51.486;7.366;2023-11-21T09:53:20;9.00;99.90
59313;DHT22;45084;51.486;7.366;2023-11-21T09:56:18;9.10;99.90
59313;DHT22;45084;51.486;7.366;2023-11-21T09:59:06;9.10;99.90
59313;DHT22;45084;51.486;7.366;2023-11-21T10:01:53;9.20;99.90
59313;DHT22;45084;51.486;7.366;2023-11-21T10:04:25;9.20;99.90
59313;DHT22;45084;51.486;7.366;2023-11-21T10:09:19;9.10;99.90
59313;DHT22;45084;51.486;7.366;2023-11-21T10:11:52;9.10;99.90
59313;DHT22;45084;51.486;7.366;2023-11-21T10:14:30;9.20;99.90
59313;DHT22;45084;51.486;7.366;2023-11-21T10:16:59;9.30;99.90
59313;DHT22;45084;51.486;7.366;2023-11-21T10:19:36;9.30;99.90
59313;DHT22;45084;51.486;7.366;2023-11-21T10:22:13;9.30;99.90
59313;DHT22;45084;51.486;7.366;2023-11-21T10:24:45;9.10;99.90
59313;DHT22;45084;51.486;7.366;2023-11-21T10:27:13;9.30;99.90
59313;DHT22;45084;51.486;7.366;2023-11-21T10:29:53;9.30;99.90
59313;DHT22;45084;51.486;7.366;2023-11-21T10:32:30;9.30;99.90
59313;DHT22;45084;51.486;7.366;2023-11-21T10:35:00;9.50;99.90
59313;DHT22;45084;51.486;7.366;2023-11-21T10:37:27;9.60;99.90
59313;DHT22;45084;51.486;7.366;2023-11-21T10:40:02;9.70;99.90
59313;DHT22;45084;51.486;7.366;2023-11-21T10:42:37;9.90;99.90
59313;DHT22;45084;51.486;7.366;2023-11-21T10:45:11;10.10;99.90
59313;DHT22;45084;51.486;7.366;2023-11-21T10:47:44;10.20;99.90
59313;DHT22;45084;51.486;7.366;2023-11-21T10:50:10;10.20;99.90
59313;DHT22;45084;51.486;7.366;2023-11-21T10:52:41;10.30;99.90
59313;DHT22;45084;51.486;7.366;2023-11-21T10:55:24;10.00;99.90
59313;DHT22;45084;51.486;7.366;2023-11-21T10:58:00;10.00;99.90
59313;DHT22;45084;51.486;7.366;2023-11-21T11:00:35;10.00;99.90
59313;DHT22;45084;51.486;7.366;2023-11-21T11:03:02;10.00;99.90
59313;DHT22;45084;51.486;7.366;2023-11-21T11:05:29;9.80;99.90
59313;DHT22;45084;51.486;7.366;2023-11-21T11:08:07;9.70;99.90
59313;DHT22;45084;51.486;7.366;2023-11-21T11:10:34;9.80;99.90
59313;DHT22;45084;51.486;7.366;2023-11-21T11:13:06;9.80;99.90
59313;DHT22;45084;51.486;7.366;2023-11-21T11:15:32;10.00;99.90
59313;DHT22;45084;51.486;7.366;2023-11-21T11:18:00;10.10;99.90
59313;DHT22;45084;51.486;7.366;2023-11-21T11:20:36;10.00;99.90
59313;DHT22;45084;51.486;7.366;2023-11-21T11:28:15;9.90;99.90
59313;DHT22;45084;51.486;7.366;2023-11-21T11:31:13;9.80;99.90
59313;DHT22;45084;51.486;7.366;2023-11-21T11:34:04;9.90;99.90
59313;DHT22;45084;51.486;7.366;2023-11-21T11:36:45;9.70;99.90
59313;DHT22;45084;51.486;7.366;2023-11-21T11:39:35;9.50;99.90
59313;DHT22;45084;51.486;7.366;2023-11-21T11:42:03;9.50;99.90
59313;DHT22;45084;51.486;7.366;2023-11-21T11:52:45;9.10;99.90
59313;DHT22;45084;51.486;7.366;2023-11-21T11:55:33;9.10;99.90
59313;DHT22;45084;51.486;7.366;2023-11-21T11:58:19;9.20;99.90
59313;DHT22;45084;51.486;7.366;2023-11-21T12:00:50;9.10;99.90
59313;DHT22;45084;51.486;7.366;2023-11-21T12:03:19;8.90;99.90
59313;DHT22;45084;51.486;7.366;2023-11-21T12:05:49;8.90;99.90
59313;DHT22;45084;51.486;7.366;2023-11-21T12:08:18;8.90;99.90
59313;DHT22;45084;51.486;7.366;2023-11-21T12:10:43;8.80;99.90
59313;DHT22;45084;51.486;7.366;2023-11-21T12:13:14;8.80;99.90
59313;DHT22;45084;51.486;7.366;2023-11-21T12:15:51;8.80;99.90
59313;DHT22;45084;51.486;7.366;2023-11-21T12:18:18;8.80;99.90
59313;DHT22;45084;51.486;7.366;2023-11-21T12:20:47;8.80;99.90
59313;DHT22;45084;51.486;7.366;2023-11-21T12:23:16;8.70;99.90
59313;DHT22;45084;51.486;7.366;2023-11-21T12:25:42;8.80;99.90
59313;DHT22;45084;51.486;7.366;2023-11-21T12:28:08;8.80;99.90
59313;DHT22;45084;51.486;7.366;2023-11-21T12:30:35;8.80;99.90
59313;DHT22;45084;51.486;7.366;2023-11-21T12:33:02;8.80;99.90
59313;DHT22;45084;51.486;7.366;2023-11-21T12:35:30;8.80;99.90
59313;DHT22;45084;51.486;7.366;2023-11-21T12:37:59;8.80;99.90
59313;DHT22;45084;51.486;7.366;2023-11-21T12:40:26;8.70;99.90
59313;DHT22;45084;51.486;7.366;2023-11-21T12:42:57;8.80;99.90
59313;DHT22;45084;51.486;7.366;2023-11-21T12:45:26;8.80;99.90
59313;DHT22;45084;51.486;7.366;2023-11-21T12:47:57;8.80;99.90
59313;DHT22;45084;51.486;7.366;2023-11-21T12:50:26;8.90;99.90
59313;DHT22;45084;51.486;7.366;2023-11-21T12:52:59;8.90;99.90
59313;DHT22;45084;51.486;7.366;2023-11-21T12:58:54;8.90;99.90
59313;DHT22;45084;51.486;7.366;2023-11-21T13:02:05;9.00;99.90
59313;DHT22;45084;51.486;7.366;2023-11-21T13:04:57;8.90;99.90
59313;DHT22;45084;51.486;7.366;2023-11-21T13:07:23;8.90;99.90
59313;DHT22;45084;51.486;7.366;2023-11-21T13:10:09;8.90;99.90
59313;DHT22;45084;51.486;7.366;2023-11-21T13:12:51;8.90;99.90
59313;DHT22;45084;51.486;7.366;2023-11-21T13:15:18;8.80;99.90
59313;DHT22;45084;51.486;7.366;2023-11-21T13:17:45;8.80;99.90
59313;DHT22;45084;51.486;7.366;2023-11-21T13:20:31;8.60;99.90
59313;DHT22;45084;51.486;7.366;2023-11-21T13:23:13;8.70;99.90
59313;DHT22;45084;51.486;7.366;2023-11-21T13:25:42;8.60;99.90
59313;DHT22;45084;51.486;7.366;2023-11-21T13:28:08;8.60;99.90
59313;DHT22;45084;51.486;7.366;2023-11-21T13:30:35;8.60;99.90
59313;DHT22;45084;51.486;7.366;2023-11-21T13:33:02;8.60;99.90
59313;DHT22;45084;51.486;7.366;2023-11-21T13:35:36;8.60;99.90
59313;DHT22;45084;51.486;7.366;2023-11-21T13:38:13;8.60;99.90
59313;DHT22;45084;51.486;7.366;2023-11-21T13:40:47;8.60;99.90
59313;DHT22;45084;51.486;7.366;2023-11-21T13:43:16;8.60;99.90
59313;DHT22;45084;51.486;7.366;2023-11-21T13:45:44;8.70;99.90
59313;DHT22;45084;51.486;7.366;2023-11-21T13:48:14;8.70;99.90
59313;DHT22;45084;51.486;7.366;2023-11-21T13:50:40;8.70;99.90
59313;DHT22;45084;51.486;7.366;2023-11-21T13:53:14;8.70;99.90
59313;DHT22;45084;51.486;7.366;2023-11-21T13:56:06;8.60;99.90
59313;DHT22;45084;51.486;7.366;2023-11-21T13:58:31;8.60;99.90
59313;DHT22;45084;51.486;7.366;2023-11-21T14:01:10;8.70;99.90
59313;DHT22;45084;51.486;7.366;2023-11-21T14:04:02;8.60;99.90
59313;DHT22;45084;51.486;7.366;2023-11-21T14:06:38;8.70;99.90
59313;DHT22;45084;51.486;7.366;2023-11-21T14:09:23;8.60;99.90
59313;DHT22;45084;51.486;7.366;2023-11-21T14:12:01;8.60;99.90
59313;DHT22;45084;51.486;7.366;2023-11-21T14:14:34;8.60;99.90
59313;DHT22;45084;51.486;7.366;2023-11-21T14:17:01;8.60;99.90
59313;DHT22;45084;51.486;7.366;2023-11-21T14:19:32;8.70;99.90
59313;DHT22;45084;51.486;7.366;2023-11-21T14:24:51;8.60;99.90
59313;DHT22;45084;51.486;7.366;2023-11-21T14:27:19;8.60;99.90
59313;DHT22;45084;51.486;7.366;2023-11-21T14:29:44;8.60;99.90
59313;DHT22;45084;51.486;7.366;2023-11-21T14:32:11;8.60;99.90
59313;DHT22;45084;51.486;7.366;2023-11-21T14:34:40;8.60;99.90
59313;DHT22;45084;51.486;7.366;2023-11-21T14:37:23;8.60;99.90
59313;DHT22;45084;51.486;7.366;2023-11-21T14:39:55;8.50;99.90
59313;DHT22;45084;51.486;7.366;2023-11-21T14:42:39;8.50;99.90
59313;DHT22;45084;51.486;7.366;2023-11-21T14:45:11;8.40;99.90
59313;DHT22;45084;51.486;7.366;2023-11-21T14:50:34;8.50;99.90
59313;DHT22;45084;51.486;7.366;2023-11-21T14:53:08;8.50;99.90
59313;DHT22;45084;51.486;7.366;2023-11-21T14:55:35;8.50;99.90
59313;DHT22;45084;51.486;7.366;2023-11-21T14:58:17;8.40;99.90
59313;DHT22;45084;51.486;7.366;2023-11-21T15:00:58;8.50;99.90
59313;DHT22;45084;51.486;7.366;2023-11-21T15:03:28;8.40;99.90
59313;DHT22;45084;51.486;7.366;2023-11-21T15:06:22;8.30;99.90
59313;DHT22;45084;51.486;7.366;2023-11-21T15:08:59;8.30;99.90
59313;DHT22;45084;51.486;7.366;2023-11-21T15:11:35;8.20;99.90
59313;DHT22;45084;51.486;7.366;2023-11-21T15:14:28;8.20;99.90
59313;DHT22;45084;51.486;7.366;2023-11-21T15:17:48;8.20;99.90
59313;DHT22;45084;51.486;7.366;2023-11-21T15:20:34;8.20;99.90
59313;DHT22;45084;51.486;7.366;2023-11-21T15:23:02;8.20;99.90
59313;DHT22;45084;51.486;7.366;2023-11-21T15:25:48;8.20;99.90
59313;DHT22;45084;51.486;7.366;2023-11-21T15:28:25;8.20;99.90
59313;DHT22;45084;51.486;7.366;2023-11-21T15:30:51;8.10;99.90
59313;DHT22;45084;51.486;7.366;2023-11-21T15:33:19;8.20;99.90
59313;DHT22;45084;51.486;7.366;2023-11-21T15:39:26;8.00;99.90
59313;DHT22;45084;51.486;7.366;2023-11-21T15:42:13;7.90;99.90
59313;DHT22;45084;51.486;7.366;2023-11-21T15:44:39;7.70;99.90
59313;DHT22;45084;51.486;7.366;2023-11-21T15:47:08;7.60;99.90
59313;DHT22;45084;51.486;7.366;2023-11-21T15:49:34;7.40;99.90
59313;DHT22;45084;51.486;7.366;2023-11-21T15:52:02;7.40;99.90
59313;DHT22;45084;51.486;7.366;2023-11-21T15:54:28;7.30;99.90
59313;DHT22;45084;51.486;7.366;2023-11-21T16:05:57;7.20;99.90
59313;DHT22;45084;51.486;7.366;2023-11-21T16:08:44;7.30;99.90
59313;DHT22;45084;51.486;7.366;2023-11-21T16:45:50;6.70;99.90
59313;DHT22;45084;51.486;7.366;2023-11-21T16:48:19;6.70;99.90
59313;DHT22;45084;51.486;7.366;2023-11-21T16:50:46;6.70;99.90
59313;DHT22;45084;51.486;7.366;2023-11-21T16:53:12;6.70;99.90
59313;DHT22;45084;51.486;7.366;2023-11-21T16:56:08;6.70;99.90
59313;DHT22;45084;51.486;7.366;2023-11-21T16:58:41;6.70;99.90
59313;DHT22;45084;51.486;7.366;2023-11-21T17:01:14;6.70;99.90
59313;DHT22;45084;51.486;7.366;2023-11-21T17:09:04;6.70;99.90
59313;DHT22;45084;51.486;7.366;2023-11-21T17:11:37;6.70;99.90
59313;DHT22;45084;51.486;7.366;2023-11-21T17:14:32;6.60;99.90
59313;DHT22;45084;51.486;7.366;2023-11-21T17:17:00;6.60;99.90
59313;DHT22;45084;51.486;7.366;2023-11-21T17:19:36;6.50;99.90
59313;DHT22;45084;51.486;7.366;2023-11-21T17:22:31;6.40;99.90
59313;DHT22;45084;51.486;7.366;2023-11-21T17:25:02;6.30;99.90
59313;DHT22;45084;51.486;7.366;2023-11-21T17:27:31;6.30;99.90
59313;DHT22;45084;51.486;7.366;2023-11-21T17:29:59;6.30;99.90
59313;DHT22;45084;51.486;7.366;2023-11-21T17:32:24;6.40;99.90
59313;DHT22;45084;51.486;7.366;2023-11-21T17:34:57;6.20;99.90
59313;DHT22;45084;51.486;7.366;2023-11-21T17:37:28;6.20;99.90
59313;DHT22;45084;51.486;7.366;2023-11-21T17:40:17;6.20;99.90
59313;DHT22;45084;51.486;7.366;2023-11-21T17:46:40;6.10;99.90
59313;DHT22;45084;51.486;7.366;2023-11-21T17:49:08;6.00;99.90
59313;DHT22;45084;51.486;7.366;2023-11-21T17:58:58;6.00;99.90
59313;DHT22;45084;51.486;7.366;2023-11-21T18:01:54;6.00;99.90
59313;DHT22;45084;51.486;7.366;2023-11-21T18:04:21;6.00;99.90
59313;DHT22;45084;51.486;7.366;2023-11-21T18:06:48;6.10;99.90
59313;DHT22;45084;51.486;7.366;2023-11-21T18:09:16;6.00;99.90
59313;DHT22;45084;51.486;7.366;2023-11-21T18:11:44;6.10;99.90
59313;DHT22;45084;51.486;7.366;2023-11-21T18:14:45;6.00;99.90
59313;DHT22;45084;51.486;7.366;2023-11-21T18:17:17;6.00;99.90
59313;DHT22;45084;51.486;7.366;2023-11-21T18:19:44;6.00;99.90
59313;DHT22;45084;51.486;7.366;2023-11-21T18:22:10;6.00;99.90
59313;DHT22;45084;51.486;7.366;2023-11-21T18:24:36;6.20;99.90
59313;DHT22;45084;51.486;7.366;2023-11-21T18:27:02;6.10;99.90
59313;DHT22;45084;51.486;7.366;2023-11-21T18:29:30;6.00;99.90
59313;DHT22;45084;51.486;7.366;2023-11-21T18:31:56;6.00;99.90
59313;DHT22;45084;51.486;7.366;2023-11-21T18:34:21;6.00;99.90
59313;DHT22;45084;51.486;7.366;2023-11-21T18:36:47;6.00;99.90
59313;DHT22;45084;51.486;7.366;2023-11-21T18:39:13;5.90;99.90